Time;durP1;ratioP1;P1;durP2;ratioP2;P2;SDS_P1;SDS_P2;PMS_P1;PMS_P2;Temp;Humidity;BMP_temperature;BMP_pressure;BME280_temperature;BME280_humidity;BME280_pressure;Samples;Min_cycle;Max_cycle;Signal;HPM_P1;HPM_P2
2021/10/05 00:00:05;;;;;;;10.03;5.47;;;15.80;1.00;;;;;;5107716;28;20460;-55
2021/10/05 00:02:31;;;;;;;7.77;5.97;;;15.80;1.00;;;;;;5104938;28;20197;-53
2021/10/05 00:04:56;;;;;;;8.07;6.03;;;15.80;1.00;;;;;;5105222;28;20437;-54
2021/10/05 00:07:22;;;;;;;7.20;5.30;;;15.80;1.00;;;;;;5108419;28;20275;-55
2021/10/05 00:09:48;;;;;;;6.00;5.40;;;15.70;1.00;;;;;;5109913;28;20202;-53
2021/10/05 00:12:14;;;;;;;7.20;5.97;;;15.70;1.00;;;;;;5104776;28;20203;-54
2021/10/05 00:14:40;;;;;;;9.23;6.83;;;15.70;1.00;;;;;;5105083;28;20240;-53
2021/10/05 00:17:05;;;;;;;6.67;5.30;;;15.80;1.00;;;;;;5108593;28;20494;-53
2021/10/05 00:19:31;;;;;;;8.00;6.00;;;15.70;1.00;;;;;;5105917;28;20199;-52
2021/10/05 00:21:56;;;;;;;6.03;5.43;;;15.60;1.00;;;;;;5106723;28;20194;-53
2021/10/05 00:24:22;;;;;;;7.77;6.27;;;15.60;1.00;;;;;;5108144;28;20182;-52
2021/10/05 00:26:47;;;;;;;9.77;6.37;;;15.70;1.00;;;;;;5108954;28;20488;-53
2021/10/05 00:29:13;;;;;;;8.90;5.67;;;15.70;1.00;;;;;;5104219;28;20651;-52
2021/10/05 00:31:39;;;;;;;9.60;5.67;;;15.70;1.00;;;;;;5106747;28;20201;-55
2021/10/05 00:34:04;;;;;;;7.67;5.63;;;15.70;1.00;;;;;;5106033;28;20220;-53
2021/10/05 00:36:30;;;;;;;6.27;5.50;;;15.80;1.00;;;;;;5108823;28;20186;-53
2021/10/05 00:38:55;;;;;;;5.90;5.30;;;15.70;1.00;;;;;;5108769;28;20186;-53
2021/10/05 00:41:21;;;;;;;6.50;5.37;;;15.70;1.00;;;;;;5104131;28;20230;-53
2021/10/05 00:43:47;;;;;;;7.97;5.83;;;15.70;1.00;;;;;;5104575;28;20272;-54
2021/10/05 00:46:12;;;;;;;8.07;5.70;;;15.80;1.00;;;;;;5107584;28;20192;-53
2021/10/05 00:48:38;;;;;;;6.77;5.57;;;15.80;1.00;;;;;;5107717;28;20172;-53
2021/10/05 00:51:03;;;;;;;8.67;6.93;;;15.70;1.00;;;;;;5106246;28;20295;-53
2021/10/05 00:53:29;;;;;;;8.67;6.07;;;15.70;1.00;;;;;;5108161;28;20214;-53
2021/10/05 00:55:55;;;;;;;9.57;5.70;;;15.80;1.00;;;;;;5101143;28;20215;-53
2021/10/05 00:58:21;;;;;;;7.93;5.20;;;15.90;1.00;;;;;;5108538;28;20189;-53
2021/10/05 01:00:46;;;;;;;12.23;5.90;;;15.80;1.00;;;;;;5105582;28;21035;-53
2021/10/05 01:03:12;;;;;;;10.37;6.87;;;15.70;1.00;;;;;;5107277;28;20273;-53
2021/10/05 01:05:37;;;;;;;11.07;6.30;;;15.60;1.00;;;;;;5104898;28;20546;-52
2021/10/05 01:08:04;;;;;;;9.03;5.70;;;15.60;1.00;;;;;;5108111;28;20175;-54
2021/10/05 01:10:30;;;;;;;8.03;5.33;;;15.60;1.00;;;;;;5107570;28;20647;-53
2021/10/05 01:12:56;;;;;;;7.23;5.00;;;15.60;1.00;;;;;;5110424;28;20458;-53
2021/10/05 01:15:24;;;;;;;7.40;4.90;;;15.60;1.00;;;;;;5104361;28;20447;-53
2021/10/05 01:17:50;;;;;;;6.90;5.90;;;15.60;1.00;;;;;;5111343;28;20340;-52
2021/10/05 01:20:16;;;;;;;6.90;5.30;;;15.70;1.00;;;;;;5108180;27;20757;-52
2021/10/05 01:22:41;;;;;;;6.40;5.20;;;15.80;1.00;;;;;;5108960;28;20430;-53
2021/10/05 01:25:11;;;;;;;11.93;5.17;;;15.70;1.00;;;;;;5108945;28;20632;-53
2021/10/05 01:27:47;;;;;;;6.13;5.50;;;15.70;1.00;;;;;;5110167;28;20190;-55
2021/10/05 01:30:14;;;;;;;6.80;5.27;;;15.70;1.00;;;;;;5107060;28;20525;-53
2021/10/05 01:32:40;;;;;;;7.50;5.83;;;15.80;1.00;;;;;;5112481;28;20500;-53
2021/10/05 01:35:06;;;;;;;10.73;5.60;;;15.80;1.00;;;;;;5108513;28;20505;-53
2021/10/05 01:37:32;;;;;;;11.33;5.47;;;15.80;1.00;;;;;;5102424;27;20203;-53
2021/10/05 01:39:58;;;;;;;7.10;4.53;;;15.80;1.00;;;;;;5111252;27;20437;-55
2021/10/05 01:42:23;;;;;;;8.73;6.37;;;15.70;1.00;;;;;;5110841;28;20415;-53
2021/10/05 01:44:49;;;;;;;9.03;6.17;;;15.80;1.00;;;;;;5110690;28;20185;-54
2021/10/05 01:47:14;;;;;;;8.60;5.83;;;15.80;1.00;;;;;;5107344;28;20203;-53
2021/10/05 01:49:40;;;;;;;6.87;6.17;;;15.70;1.00;;;;;;5109100;28;20248;-52
2021/10/05 01:52:06;;;;;;;8.30;5.80;;;15.70;1.00;;;;;;5111644;28;20249;-53
2021/10/05 01:54:33;;;;;;;8.60;5.57;;;15.80;1.00;;;;;;5111973;28;20269;-54
2021/10/05 01:56:59;;;;;;;6.53;5.40;;;15.80;1.00;;;;;;5111560;28;20448;-53
2021/10/05 01:59:24;;;;;;;7.03;5.50;;;15.80;1.00;;;;;;5107529;28;20800;-54
2021/10/05 02:01:50;;;;;;;7.10;5.20;;;15.70;1.00;;;;;;5112135;28;20271;-52
2021/10/05 02:04:15;;;;;;;5.17;4.43;;;15.70;1.00;;;;;;5109147;28;20196;-52
2021/10/05 02:06:41;;;;;;;5.20;4.30;;;15.50;1.00;;;;;;5091491;28;20206;-55
2021/10/05 02:09:08;;;;;;;8.27;5.33;;;15.60;1.00;;;;;;5106447;28;20555;-54
2021/10/05 02:11:34;;;;;;;5.23;4.60;;;15.60;1.00;;;;;;5107930;28;20187;-53
2021/10/05 02:14:00;;;;;;;4.07;3.67;;;15.50;1.00;;;;;;5109588;28;20469;-53
2021/10/05 02:16:26;;;;;;;4.57;4.17;;;15.50;1.00;;;;;;5108467;28;20444;-52
2021/10/05 02:18:51;;;;;;;5.07;4.00;;;15.40;1.00;;;;;;5111038;28;20502;-54
2021/10/05 02:21:18;;;;;;;7.33;3.73;;;15.40;1.00;;;;;;5106670;28;20198;-53
2021/10/05 02:26:29;;;;;;;5.50;3.80;;;15.30;1.00;;;;;;5109182;28;20998;-53
2021/10/05 02:28:55;;;;;;;3.80;3.50;;;15.30;1.00;;;;;;5109239;28;20816;-55
2021/10/05 02:31:21;;;;;;;3.87;3.57;;;15.30;1.00;;;;;;5112197;28;20419;-54
2021/10/05 02:33:46;;;;;;;4.53;4.10;;;15.30;1.00;;;;;;5107152;28;20218;-53
2021/10/05 02:36:12;;;;;;;5.67;3.30;;;15.30;1.00;;;;;;5108057;28;20184;-56
2021/10/05 02:38:37;;;;;;;4.43;4.03;;;15.30;1.00;;;;;;5109992;28;20187;-53
2021/10/05 02:41:03;;;;;;;4.87;3.47;;;15.30;1.00;;;;;;5110571;28;20635;-54
2021/10/05 02:43:29;;;;;;;9.00;4.57;;;15.20;1.00;;;;;;5109507;27;20195;-52
2021/10/05 02:45:54;;;;;;;4.27;3.87;;;15.30;1.00;;;;;;5106838;28;20207;-53
2021/10/05 02:48:20;;;;;;;5.57;4.20;;;15.20;1.00;;;;;;5111557;27;20192;-53
2021/10/05 02:50:45;;;;;;;5.27;4.77;;;15.20;1.00;;;;;;5107910;28;20202;-54
2021/10/05 02:53:11;;;;;;;6.23;4.60;;;15.20;1.00;;;;;;5110242;28;20213;-55
2021/10/05 02:55:36;;;;;;;6.57;4.40;;;15.20;1.00;;;;;;5111047;28;20207;-54
2021/10/05 02:58:02;;;;;;;4.57;3.87;;;15.20;1.00;;;;;;5109198;28;20199;-52
2021/10/05 03:00:28;;;;;;;5.23;4.80;;;15.30;1.00;;;;;;5089799;28;20201;-53
2021/10/05 03:02:54;;;;;;;4.60;4.20;;;15.30;1.00;;;;;;5108965;28;20568;-53
2021/10/05 03:05:19;;;;;;;6.90;5.20;;;15.20;1.00;;;;;;5108326;28;20187;-54
2021/10/05 03:07:45;;;;;;;6.30;4.77;;;15.10;1.00;;;;;;5107032;28;20204;-53
2021/10/05 03:10:10;;;;;;;8.53;4.87;;;15.10;1.00;;;;;;5092445;28;20283;-54
2021/10/05 03:12:36;;;;;;;5.63;4.93;;;15.10;1.00;;;;;;5104734;28;20211;-53
2021/10/05 03:15:01;;;;;;;5.93;5.37;;;15.20;1.00;;;;;;5106222;28;20250;-56
2021/10/05 03:17:27;;;;;;;7.23;5.47;;;15.20;1.00;;;;;;5109078;28;20190;-53
2021/10/05 03:19:52;;;;;;;8.73;6.20;;;15.20;1.00;;;;;;5096652;28;20612;-53
2021/10/05 03:22:18;;;;;;;6.80;5.57;;;15.20;1.00;;;;;;5106644;28;20664;-54
2021/10/05 03:24:44;;;;;;;6.20;5.60;;;15.30;1.00;;;;;;5109506;28;20214;-53
2021/10/05 03:27:10;;;;;;;9.47;6.40;;;15.40;1.00;;;;;;5105723;28;20177;-52
2021/10/05 03:29:36;;;;;;;9.03;6.70;;;15.30;1.00;;;;;;5101954;28;20493;-54
2021/10/05 03:32:03;;;;;;;7.50;5.57;;;15.30;1.00;;;;;;5108413;28;20531;-53
2021/10/05 03:34:28;;;;;;;8.73;6.10;;;15.20;1.00;;;;;;5105828;28;20467;-52
2021/10/05 03:36:54;;;;;;;5.93;5.13;;;15.20;1.00;;;;;;5107910;28;20436;-53
2021/10/05 03:39:19;;;;;;;10.10;6.33;;;15.10;1.00;;;;;;5091564;28;20180;-53
2021/10/05 03:41:45;;;;;;;7.93;6.50;;;15.10;1.00;;;;;;5104760;28;20193;-53
2021/10/05 03:44:10;;;;;;;10.10;6.70;;;15.20;1.00;;;;;;5095625;28;20181;-53
2021/10/05 03:46:36;;;;;;;6.87;5.30;;;15.10;1.00;;;;;;5103671;28;20185;-53
2021/10/05 03:49:02;;;;;;;10.83;6.07;;;15.00;1.00;;;;;;5109958;28;20183;-53
2021/10/05 03:51:27;;;;;;;8.23;6.00;;;15.00;1.00;;;;;;5105918;28;20233;-53
2021/10/05 03:53:53;;;;;;;9.87;5.47;;;14.90;1.00;;;;;;5109221;28;20225;-53
2021/10/05 03:56:18;;;;;;;11.00;5.40;;;14.90;1.00;;;;;;5105173;28;20267;-55
2021/10/05 03:58:44;;;;;;;6.73;4.70;;;14.80;1.00;;;;;;5106759;28;20262;-54
2021/10/05 04:01:09;;;;;;;7.03;4.77;;;14.80;1.00;;;;;;5107035;28;20292;-53
2021/10/05 04:03:35;;;;;;;6.97;5.37;;;14.70;1.00;;;;;;5106740;28;20187;-53
2021/10/05 04:06:01;;;;;;;7.37;5.30;;;14.60;1.00;;;;;;5106191;28;20188;-53
2021/10/05 04:08:28;;;;;;;6.47;5.83;;;14.70;1.00;;;;;;5107796;28;20179;-53
2021/10/05 04:10:54;;;;;;;6.67;6.00;;;14.60;1.00;;;;;;5108046;28;20445;-53
2021/10/05 04:13:20;;;;;;;6.23;5.20;;;14.60;1.00;;;;;;5105693;28;20438;-53
2021/10/05 04:15:45;;;;;;;6.23;4.57;;;14.60;1.00;;;;;;5107172;28;20437;-53
2021/10/05 04:18:11;;;;;;;6.73;5.37;;;14.50;1.00;;;;;;5107063;28;20185;-52
2021/10/05 04:20:36;;;;;;;7.10;5.30;;;14.60;1.00;;;;;;5108721;28;20217;-53
2021/10/05 04:23:02;;;;;;;7.03;5.20;;;14.60;1.00;;;;;;5103032;28;20182;-53
2021/10/05 04:25:28;;;;;;;7.40;5.27;;;14.70;1.00;;;;;;5108944;28;20181;-54
2021/10/05 04:27:53;;;;;;;6.33;5.30;;;14.70;1.00;;;;;;5105808;28;20194;-53
2021/10/05 04:30:19;;;;;;;5.53;4.93;;;14.70;1.00;;;;;;5105676;28;20182;-53
2021/10/05 04:32:45;;;;;;;6.27;5.20;;;14.60;1.00;;;;;;5106548;28;20182;-54
2021/10/05 04:35:10;;;;;;;7.10;6.17;;;14.50;1.00;;;;;;5109572;28;20262;-53
2021/10/05 04:37:36;;;;;;;9.20;6.70;;;14.60;1.00;;;;;;5109096;28;20318;-52
2021/10/05 04:40:03;;;;;;;11.03;6.30;;;14.60;1.00;;;;;;5105337;28;20199;-54
2021/10/05 04:42:29;;;;;;;12.13;8.30;;;14.60;1.00;;;;;;5103551;28;20181;-56
2021/10/05 04:44:54;;;;;;;10.70;8.07;;;14.60;1.00;;;;;;5111199;28;20504;-53
2021/10/05 04:47:20;;;;;;;6.67;5.90;;;14.60;1.00;;;;;;5111405;28;20193;-54
2021/10/05 04:49:45;;;;;;;11.23;6.77;;;14.70;1.00;;;;;;5104208;28;20835;-54
2021/10/05 04:52:11;;;;;;;8.37;6.87;;;14.70;1.00;;;;;;5110587;28;20321;-52
2021/10/05 04:54:36;;;;;;;7.43;6.37;;;14.70;1.00;;;;;;5110835;28;20209;-53
2021/10/05 04:57:02;;;;;;;6.90;6.00;;;14.80;1.00;;;;;;5112245;28;20193;-52
2021/10/05 04:59:28;;;;;;;6.80;4.63;;;14.80;1.00;;;;;;5109680;28;20264;-54
2021/10/05 05:01:54;;;;;;;7.10;6.40;;;14.80;1.00;;;;;;5110005;28;20181;-54
2021/10/05 05:04:20;;;;;;;8.47;6.10;;;14.80;1.00;;;;;;5108513;28;20446;-52
2021/10/05 05:06:46;;;;;;;29.70;22.03;;;14.80;1.00;;;;;;5112416;28;20655;-54
2021/10/05 05:09:11;;;;;;;20.30;16.07;;;14.90;1.00;;;;;;5112583;28;20591;-55
2021/10/05 05:11:37;;;;;;;8.93;7.27;;;14.90;1.00;;;;;;5108660;28;20429;-54
2021/10/05 05:14:07;;;;;;;8.20;5.80;;;14.90;1.00;;;;;;5113442;28;20537;-54
2021/10/05 05:16:33;;;;;;;11.43;6.83;;;14.90;1.00;;;;;;5109642;28;20208;-53
2021/10/05 05:18:59;;;;;;;7.87;6.90;;;14.90;1.00;;;;;;5106443;27;20445;-53
2021/10/05 05:21:25;;;;;;;11.83;7.20;;;14.90;1.00;;;;;;5112730;28;20448;-54
2021/10/05 05:23:50;;;;;;;10.37;6.43;;;14.90;1.00;;;;;;5112474;28;20534;-54
2021/10/05 05:26:16;;;;;;;8.23;7.30;;;14.90;1.00;;;;;;5110704;28;20244;-55
2021/10/05 05:28:41;;;;;;;10.63;6.53;;;14.90;1.00;;;;;;5109375;28;20190;-52
2021/10/05 05:31:07;;;;;;;8.83;6.70;;;14.90;1.00;;;;;;5112565;28;20263;-53
2021/10/05 05:33:32;;;;;;;7.80;5.90;;;14.90;1.00;;;;;;5111106;28;20206;-55
2021/10/05 05:35:58;;;;;;;9.27;6.77;;;14.90;1.00;;;;;;5110135;28;20267;-53
2021/10/05 05:38:26;;;;;;;8.70;7.13;;;14.90;1.00;;;;;;5096185;28;20200;-55
2021/10/05 05:40:52;;;;;;;8.87;7.53;;;15.00;1.00;;;;;;5110548;28;20640;-54
2021/10/05 05:43:18;;;;;;;12.70;9.60;;;15.20;1.00;;;;;;5109143;28;20438;-53
2021/10/05 05:45:44;;;;;;;10.90;7.87;;;15.10;1.00;;;;;;5110908;28;20497;-54
2021/10/05 05:48:09;;;;;;;12.17;8.30;;;15.10;1.00;;;;;;5110802;28;20191;-54
2021/10/05 05:50:35;;;;;;;10.10;7.47;;;15.00;1.00;;;;;;5109716;28;20532;-54
2021/10/05 05:53:01;;;;;;;10.20;7.73;;;15.00;1.00;;;;;;5109144;27;20552;-53
2021/10/05 05:55:26;;;;;;;11.00;7.30;;;15.20;1.00;;;;;;5110658;28;20209;-53
2021/10/05 05:57:52;;;;;;;8.97;7.37;;;15.20;1.00;;;;;;5111511;28;20190;-53
2021/10/05 06:00:19;;;;;;;7.50;6.70;;;15.20;1.00;;;;;;5110926;28;20229;-54
2021/10/05 06:02:44;;;;;;;9.20;6.70;;;15.20;1.00;;;;;;5112143;28;20177;-51
2021/10/05 06:05:10;;;;;;;10.07;7.43;;;15.20;1.00;;;;;;5110041;28;20466;-53
2021/10/05 06:07:36;;;;;;;7.50;6.70;;;15.20;1.00;;;;;;5110905;28;20220;-56
2021/10/05 06:10:03;;;;;;;11.17;6.53;;;15.20;1.00;;;;;;5109153;28;20458;-55
2021/10/05 06:12:38;;;;;;;13.20;7.70;;;15.30;1.00;;;;;;5105907;27;20250;-51
2021/10/05 06:15:06;;;;;;;8.67;7.03;;;15.40;1.00;;;;;;5112142;28;20599;-55
2021/10/05 06:17:31;;;;;;;9.40;6.57;;;15.50;1.00;;;;;;5111443;28;20440;-51
2021/10/05 06:19:57;;;;;;;11.03;6.30;;;15.60;1.00;;;;;;5109983;28;20439;-53
2021/10/05 06:22:22;;;;;;;11.10;9.40;;;15.60;1.00;;;;;;5104055;28;20223;-53
2021/10/05 06:24:48;;;;;;;8.23;6.83;;;15.50;1.00;;;;;;5110760;27;20190;-53
2021/10/05 06:27:14;;;;;;;10.00;7.10;;;15.50;1.00;;;;;;5108323;28;20265;-55
2021/10/05 06:29:39;;;;;;;8.80;7.40;;;15.60;1.00;;;;;;5109805;28;20585;-54
2021/10/05 06:32:05;;;;;;;7.20;6.40;;;15.70;1.00;;;;;;5107079;28;20453;-52
2021/10/05 06:34:30;;;;;;;8.27;6.90;;;15.80;1.00;;;;;;5106774;28;20211;-55
2021/10/05 06:36:56;;;;;;;7.33;5.97;;;15.70;1.00;;;;;;5108636;28;20183;-54
2021/10/05 06:39:21;;;;;;;8.50;7.17;;;15.70;1.00;;;;;;5111141;28;20193;-54
2021/10/05 06:41:47;;;;;;;7.67;6.30;;;15.70;1.00;;;;;;5109892;28;20244;-55
2021/10/05 06:44:13;;;;;;;13.17;7.23;;;15.80;1.00;;;;;;5109585;28;20190;-55
2021/10/05 06:46:38;;;;;;;12.23;7.37;;;15.80;1.00;;;;;;5109800;27;20238;-52
2021/10/05 06:49:04;;;;;;;12.37;7.80;;;15.90;1.00;;;;;;5109238;28;20641;-53
2021/10/05 06:51:29;;;;;;;12.30;7.17;;;15.90;1.00;;;;;;5109404;28;20218;-55
2021/10/05 06:53:55;;;;;;;7.70;6.43;;;16.00;1.00;;;;;;5108411;28;20309;-55
2021/10/05 06:56:20;;;;;;;7.20;6.13;;;16.00;1.00;;;;;;5109723;28;20667;-55
2021/10/05 06:58:46;;;;;;;8.27;7.47;;;15.80;1.00;;;;;;5108212;28;20187;-53
2021/10/05 07:01:11;;;;;;;7.57;6.77;;;15.90;1.00;;;;;;5106011;28;20212;-53
2021/10/05 07:03:37;;;;;;;9.80;6.90;;;16.00;1.00;;;;;;5110406;28;20189;-54
2021/10/05 07:06:02;;;;;;;10.10;7.50;;;16.10;1.00;;;;;;5106121;28;20193;-55
2021/10/05 07:08:28;;;;;;;9.80;7.10;;;16.30;1.00;;;;;;5110330;28;20180;-56
2021/10/05 07:10:53;;;;;;;10.57;6.27;;;16.20;1.00;;;;;;5106429;28;20264;-53
2021/10/05 07:13:19;;;;;;;10.70;7.00;;;16.10;1.00;;;;;;5108373;28;20215;-51
2021/10/05 07:15:44;;;;;;;8.43;6.33;;;16.30;1.00;;;;;;5109694;28;20335;-54
2021/10/05 07:18:10;;;;;;;8.70;6.33;;;16.40;1.00;;;;;;5110747;28;20178;-53
2021/10/05 07:20:35;;;;;;;10.20;6.87;;;16.40;1.00;;;;;;5106119;28;20266;-54
2021/10/05 07:23:01;;;;;;;9.00;7.07;;;16.60;1.00;;;;;;5102528;28;20181;-52
2021/10/05 07:25:28;;;;;;;9.70;7.30;;;16.60;1.00;;;;;;5090847;28;20186;-55
2021/10/05 07:27:55;;;;;;;8.90;6.90;;;16.70;1.00;;;;;;5105659;27;20184;-54
2021/10/05 07:30:24;;;;;;;10.07;7.20;;;16.60;1.00;;;;;;5107798;28;20808;-54
2021/10/05 07:32:56;;;;;;;7.70;6.83;;;16.50;1.00;;;;;;5110233;28;20446;-55
2021/10/05 07:35:21;;;;;;;11.10;7.80;;;16.40;1.00;;;;;;5106755;28;20483;-54
2021/10/05 07:37:47;;;;;;;10.30;8.50;;;16.50;1.00;;;;;;5108713;28;20847;-54
2021/10/05 07:40:15;;;;;;;12.63;7.33;;;16.50;1.00;;;;;;5104294;28;20726;-54
2021/10/05 07:42:42;;;;;;;11.47;8.63;;;16.40;1.00;;;;;;5107171;28;20451;-54
2021/10/05 07:45:08;;;;;;;11.37;8.23;;;16.30;1.00;;;;;;5108969;28;20447;-52
2021/10/05 07:47:34;;;;;;;11.63;7.83;;;16.40;1.00;;;;;;5107550;28;20970;-53
2021/10/05 07:49:59;;;;;;;10.93;8.00;;;16.30;1.00;;;;;;5107375;28;20198;-57
2021/10/05 07:52:25;;;;;;;10.70;8.30;;;16.20;1.00;;;;;;5106585;28;20219;-51
2021/10/05 07:54:50;;;;;;;10.27;8.13;;;16.20;1.00;;;;;;5103204;27;20209;-53
2021/10/05 07:57:16;;;;;;;10.53;8.30;;;16.20;1.00;;;;;;5109601;28;20246;-53
2021/10/05 07:59:41;;;;;;;12.07;8.80;;;16.30;1.00;;;;;;5109244;28;20229;-56
2021/10/05 08:02:07;;;;;;;9.37;7.53;;;16.30;1.00;;;;;;5107625;28;20172;-53
2021/10/05 08:04:32;;;;;;;8.67;7.23;;;16.40;1.00;;;;;;5087192;28;20181;-52
2021/10/05 08:06:58;;;;;;;11.20;8.43;;;16.30;1.00;;;;;;5105242;28;20580;-54
2021/10/05 08:09:23;;;;;;;11.10;7.90;;;16.40;1.00;;;;;;5110176;28;20188;-52
2021/10/05 08:11:49;;;;;;;10.00;9.00;;;16.40;1.00;;;;;;5110439;28;20749;-53
2021/10/05 08:14:15;;;;;;;9.60;8.60;;;16.60;1.00;;;;;;5107940;28;20206;-54
2021/10/05 08:16:41;;;;;;;10.57;8.40;;;16.70;1.00;;;;;;5109783;28;20211;-54
2021/10/05 08:19:06;;;;;;;11.03;8.20;;;17.00;1.00;;;;;;5104255;28;20462;-54
2021/10/05 08:21:32;;;;;;;8.93;7.80;;;17.20;1.00;;;;;;5100379;28;20614;-54
2021/10/05 08:23:58;;;;;;;9.73;7.80;;;17.40;1.00;;;;;;5106656;28;20695;-52
2021/10/05 08:26:24;;;;;;;12.50;8.67;;;17.50;1.00;;;;;;5087660;28;20508;-54
2021/10/05 08:28:50;;;;;;;8.97;8.07;;;17.60;1.00;;;;;;5108064;28;20234;-56
2021/10/05 08:31:18;;;;;;;9.80;8.13;;;17.60;1.00;;;;;;5103062;28;20494;-54
2021/10/05 08:33:45;;;;;;;15.70;8.17;;;17.70;1.00;;;;;;5110043;28;20551;-54
2021/10/05 08:36:10;;;;;;;11.23;8.50;;;17.80;1.00;;;;;;5100851;28;20448;-54
2021/10/05 08:38:39;;;;;;;8.63;7.43;;;17.80;1.00;;;;;;5103239;28;20963;-54
2021/10/05 08:41:05;;;;;;;10.77;8.33;;;17.90;1.00;;;;;;5107070;28;20623;-54
2021/10/05 08:43:31;;;;;;;9.60;8.70;;;18.00;1.00;;;;;;5107582;28;20528;-52
2021/10/05 08:45:57;;;;;;;10.07;7.97;;;18.00;1.00;;;;;;5107896;28;20366;-53
2021/10/05 08:48:32;;;;;;;9.63;8.00;;;18.00;1.00;;;;;;5108844;28;20260;-52
2021/10/05 08:50:58;;;;;;;13.40;9.00;;;18.30;1.00;;;;;;5105414;28;20478;-53
2021/10/05 08:53:23;;;;;;;9.83;8.83;;;18.40;1.00;;;;;;5105910;28;20820;-51
2021/10/05 08:55:49;;;;;;;16.93;8.80;;;18.50;1.00;;;;;;5104527;28;20534;-52
2021/10/05 08:58:15;;;;;;;10.87;9.73;;;18.60;1.00;;;;;;5102863;28;20217;-55
2021/10/05 09:00:41;;;;;;;9.53;8.30;;;18.60;1.00;;;;;;5103347;28;20663;-53
2021/10/05 09:03:07;;;;;;;14.30;9.23;;;18.80;1.00;;;;;;5105173;28;20937;-54
2021/10/05 09:05:32;;;;;;;14.10;8.97;;;18.90;1.00;;;;;;5106829;28;20675;-53
2021/10/05 09:07:58;;;;;;;10.10;8.97;;;18.70;1.00;;;;;;5102470;28;20181;-55
2021/10/05 09:10:27;;;;;;;11.60;8.67;;;18.50;1.00;;;;;;5109445;28;20179;-53
2021/10/05 09:12:53;;;;;;;13.73;9.50;;;18.50;1.00;;;;;;5104119;28;20260;-53
2021/10/05 09:15:21;;;;;;;9.63;8.60;;;18.40;1.00;;;;;;5107522;28;20578;-54
2021/10/05 09:17:57;;;;;;;9.50;8.30;;;18.30;1.00;;;;;;5105990;28;21006;-53
2021/10/05 09:20:32;;;;;;;10.37;8.70;;;18.40;1.00;;;;;;5103489;28;20828;-52
2021/10/05 09:23:07;;;;;;;10.93;9.07;;;18.30;1.00;;;;;;5104567;28;20453;-52
2021/10/05 09:25:36;;;;;;;10.30;8.43;;;18.40;1.00;;;;;;5106353;28;20436;-54
2021/10/05 09:28:21;;;;;;;10.40;9.00;;;18.40;1.00;;;;;;5101826;28;21005;-52
2021/10/05 09:30:57;;;;;;;12.70;9.27;;;18.40;1.00;;;;;;5109597;28;20528;-54
2021/10/05 09:33:23;;;;;;;11.80;8.80;;;18.60;1.00;;;;;;5111578;28;20497;-52
2021/10/05 09:35:48;;;;;;;13.73;8.80;;;18.60;1.00;;;;;;5111714;28;20533;-55
2021/10/05 09:38:17;;;;;;;10.00;8.40;;;18.90;1.00;;;;;;5110532;28;20180;-53
2021/10/05 09:40:43;;;;;;;13.90;9.37;;;18.90;1.00;;;;;;5104400;28;20190;-51
2021/10/05 09:43:21;;;;;;;11.80;8.77;;;18.90;1.00;;;;;;5109815;28;20409;-52
2021/10/05 09:45:47;;;;;;;11.43;8.43;;;19.00;1.00;;;;;;5094199;28;20427;-52
2021/10/05 09:48:13;;;;;;;11.20;9.57;;;19.00;1.00;;;;;;5106770;28;20441;-56
2021/10/05 09:50:39;;;;;;;15.43;9.80;;;19.60;1.00;;;;;;5110095;28;20195;-52
2021/10/05 09:53:07;;;;;;;11.50;9.67;;;19.40;1.00;;;;;;5107810;28;20423;-55
2021/10/05 09:55:38;;;;;;;13.67;9.67;;;19.30;1.00;;;;;;5111930;28;20206;-55
2021/10/05 09:58:04;;;;;;;11.90;9.87;;;19.30;1.00;;;;;;5106640;28;20411;-54
2021/10/05 10:00:33;;;;;;;11.13;9.43;;;19.20;1.00;;;;;;5109999;27;21009;-54
2021/10/05 10:02:58;;;;;;;12.10;9.90;;;19.00;1.00;;;;;;5109621;28;20829;-54
2021/10/05 10:05:27;;;;;;;13.10;11.70;;;19.00;1.00;;;;;;5106880;28;20602;-53
2021/10/05 10:07:55;;;;;;;12.37;10.80;;;19.10;1.00;;;;;;5109843;28;20191;-54
2021/10/05 10:10:28;;;;;;;11.10;10.10;;;19.30;1.00;;;;;;5110572;28;20448;-53
2021/10/05 10:12:56;;;;;;;18.83;14.80;;;19.40;1.00;;;;;;5098845;28;20514;-53
2021/10/05 10:15:33;;;;;;;12.90;10.00;;;19.60;1.00;;;;;;5108437;28;20461;-55
2021/10/05 10:18:11;;;;;;;13.87;10.00;;;19.70;1.00;;;;;;5111438;28;20934;-53
2021/10/05 10:20:40;;;;;;;13.10;9.80;;;19.70;1.00;;;;;;5112774;28;20947;-53
2021/10/05 10:23:22;;;;;;;15.20;10.67;;;19.70;1.00;;;;;;5108127;27;20801;-54
2021/10/05 10:26:08;;;;;;;12.23;10.63;;;20.00;1.00;;;;;;5112544;28;20404;-54
2021/10/05 10:28:40;;;;;;;11.87;10.43;;;20.20;1.00;;;;;;5112128;28;20410;-52
2021/10/05 10:31:09;;;;;;;16.20;11.33;;;20.40;1.00;;;;;;5111281;28;20543;-52
2021/10/05 10:33:52;;;;;;;14.73;10.90;;;20.70;1.00;;;;;;5112033;28;20435;-51
2021/10/05 10:36:50;;;;;;;15.47;10.90;;;20.80;1.00;;;;;;5112117;28;20806;-55
2021/10/05 10:39:21;;;;;;;12.53;10.03;;;21.00;1.00;;;;;;5063471;28;20462;-53
2021/10/05 10:41:53;;;;;;;13.23;11.13;;;20.90;1.00;;;;;;5110918;28;20402;-52
2021/10/05 10:44:25;;;;;;;16.30;12.80;;;21.10;1.00;;;;;;5112090;28;20425;-53
2021/10/05 10:46:51;;;;;;;17.37;13.00;;;21.30;1.00;;;;;;5110676;28;20431;-52
2021/10/05 10:49:19;;;;;;;14.13;12.53;;;21.30;1.00;;;;;;5112222;28;20921;-51
2021/10/05 10:51:47;;;;;;;16.37;14.27;;;21.00;1.00;;;;;;5110730;28;20222;-54
2021/10/05 10:54:22;;;;;;;15.67;13.00;;;20.90;1.00;;;;;;5107164;28;20792;-52
2021/10/05 10:57:00;;;;;;;16.23;14.37;;;20.90;1.00;;;;;;5111693;28;20414;-53
2021/10/05 10:59:27;;;;;;;14.67;13.27;;;21.00;1.00;;;;;;5111271;28;20761;-52
2021/10/05 11:01:53;;;;;;;18.30;14.10;;;21.00;1.00;;;;;;5109906;28;20403;-53
2021/10/05 11:04:20;;;;;;;19.00;14.63;;;21.00;1.00;;;;;;5111296;28;20746;-52
2021/10/05 11:06:52;;;;;;;18.70;16.90;;;21.10;1.00;;;;;;5111501;28;20429;-53
2021/10/05 11:09:19;;;;;;;18.97;16.83;;;21.20;1.00;;;;;;5107017;28;20416;-55
2021/10/05 11:11:48;;;;;;;18.40;16.50;;;21.00;1.00;;;;;;5111256;28;20605;-52
2021/10/05 11:14:22;;;;;;;18.47;16.77;;;20.90;1.00;;;;;;5111270;28;20463;-51
2021/10/05 11:17:03;;;;;;;21.53;17.20;;;20.70;1.00;;;;;;5108746;28;20477;-53
2021/10/05 11:19:34;;;;;;;20.17;18.17;;;20.50;1.00;;;;;;5111363;28;20435;-52
2021/10/05 11:22:03;;;;;;;20.20;18.30;;;20.50;1.00;;;;;;5109863;28;20442;-55
2021/10/05 11:24:45;;;;;;;19.47;17.57;;;20.50;1.00;;;;;;5110929;28;20444;-53
2021/10/05 11:27:22;;;;;;;17.43;15.73;;;20.40;1.00;;;;;;5106728;28;20479;-53
2021/10/05 11:29:50;;;;;;;19.30;17.13;;;20.10;1.00;;;;;;5092806;28;20398;-52
2021/10/05 11:32:18;;;;;;;18.53;16.53;;;20.00;1.00;;;;;;5109189;28;20471;-53
2021/10/05 11:34:45;;;;;;;18.40;16.40;;;19.90;1.00;;;;;;5092720;28;20472;-53
2021/10/05 11:37:13;;;;;;;18.13;16.20;;;19.90;1.00;;;;;;5110956;28;20427;-54
2021/10/05 11:39:41;;;;;;;18.10;16.40;;;19.80;1.00;;;;;;5110917;28;20554;-54
2021/10/05 11:42:22;;;;;;;20.47;16.97;;;19.70;1.00;;;;;;5110668;28;20413;-57
2021/10/05 11:44:50;;;;;;;18.50;16.70;;;19.70;1.00;;;;;;5110584;28;20412;-54
2021/10/05 11:47:18;;;;;;;18.20;16.40;;;19.60;1.00;;;;;;5110855;27;20484;-54
2021/10/05 11:49:56;;;;;;;18.13;16.27;;;19.70;1.00;;;;;;5111332;27;20413;-53
2021/10/05 11:52:25;;;;;;;20.70;17.10;;;19.60;1.00;;;;;;5102600;28;20973;-51
2021/10/05 11:54:53;;;;;;;18.00;16.20;;;19.70;1.00;;;;;;5110671;28;20460;-52
2021/10/05 11:57:22;;;;;;;19.53;17.50;;;19.90;1.00;;;;;;5101091;28;20460;-55
2021/10/05 11:59:48;;;;;;;20.33;18.23;;;19.90;1.00;;;;;;5107647;28;20443;-52
2021/10/05 12:02:16;;;;;;;19.80;17.90;;;19.90;1.00;;;;;;5108572;28;20444;-54
2021/10/05 12:04:45;;;;;;;22.23;19.00;;;19.80;1.00;;;;;;5109280;28;20459;-51
2021/10/05 12:07:14;;;;;;;21.60;19.40;;;19.90;1.00;;;;;;5109342;28;20414;-54
2021/10/05 12:09:40;;;;;;;21.30;19.10;;;19.80;1.00;;;;;;5109492;28;20793;-53
2021/10/05 12:12:09;;;;;;;27.33;23.00;;;19.70;1.00;;;;;;5109682;28;20443;-52
2021/10/05 12:14:38;;;;;;;23.30;21.03;;;19.80;1.00;;;;;;5110339;28;20550;-54
2021/10/05 12:17:10;;;;;;;21.23;19.23;;;19.70;1.00;;;;;;5110409;28;20766;-56
2021/10/05 12:19:38;;;;;;;22.50;20.30;;;19.70;1.00;;;;;;5110477;28;20753;-51
2021/10/05 12:22:07;;;;;;;21.87;19.77;;;19.60;1.00;;;;;;5108006;28;20415;-53
2021/10/05 12:24:51;;;;;;;20.80;18.83;;;19.50;1.00;;;;;;5105506;28;20466;-54
2021/10/05 12:27:35;;;;;;;19.50;17.60;;;19.70;1.00;;;;;;5109114;28;20409;-52
2021/10/05 12:30:03;;;;;;;20.10;18.07;;;19.80;1.00;;;;;;5108139;28;20772;-56
2021/10/05 12:32:33;;;;;;;19.93;17.83;;;19.80;1.00;;;;;;5110273;28;20764;-53
2021/10/05 12:34:59;;;;;;;21.17;18.83;;;19.60;1.00;;;;;;5108417;28;20485;-54
2021/10/05 12:37:30;;;;;;;23.10;18.07;;;19.50;1.00;;;;;;5110204;28;20513;-51
2021/10/05 12:40:03;;;;;;;19.63;16.20;;;19.30;1.00;;;;;;5110064;28;20182;-52
2021/10/05 12:42:38;;;;;;;15.70;13.53;;;18.80;1.00;;;;;;5110059;28;20574;-51
2021/10/05 12:45:10;;;;;;;17.77;15.77;;;18.60;1.00;;;;;;5109900;28;20734;-54
2021/10/05 12:47:35;;;;;;;15.63;13.27;;;18.60;1.00;;;;;;5105437;28;20984;-53
2021/10/05 12:50:01;;;;;;;15.63;12.80;;;18.60;1.00;;;;;;5088775;28;20469;-52
2021/10/05 12:52:26;;;;;;;14.00;12.37;;;18.40;1.00;;;;;;5107252;28;20253;-53